sensor_id;sensor_type;location;lat;lon;timestamp;pressure;altitude;pressure_sealevel;temperature;humidity
81005;BME280;70472;47.592;17.640;2023-07-31T00:00:13;99673.75;;;17.26;94.50
81005;BME280;70472;47.592;17.640;2023-07-31T00:00:46;99676.63;;;17.31;93.65
81005;BME280;70472;47.592;17.640;2023-07-31T00:01:18;99670.88;;;17.21;94.11
81005;BME280;70472;47.592;17.640;2023-07-31T00:01:50;99675.03;;;17.23;93.90
81005;BME280;70472;47.592;17.640;2023-07-31T00:02:23;99662.28;;;17.24;94.68
81005;BME280;70472;47.592;17.640;2023-07-31T00:02:55;99662.28;;;17.24;94.40
81005;BME280;70472;47.592;17.640;2023-07-31T00:03:28;99674.78;;;17.25;94.70
81005;BME280;70472;47.592;17.640;2023-07-31T00:04:00;99667.28;;;17.27;94.64
81005;BME280;70472;47.592;17.640;2023-07-31T00:04:32;99667.28;;;17.27;94.11
81005;BME280;70472;47.592;17.640;2023-07-31T00:05:05;99664.75;;;17.32;94.25
81005;BME280;70472;47.592;17.640;2023-07-31T00:05:37;99661.22;;;17.31;93.87
81005;BME280;70472;47.592;17.640;2023-07-31T00:06:10;99660.81;;;17.28;93.58
81005;BME280;70472;47.592;17.640;2023-07-31T00:06:42;99659.16;;;17.27;93.75
81005;BME280;70472;47.592;17.640;2023-07-31T00:07:14;99665.22;;;17.22;93.80
81005;BME280;70472;47.592;17.640;2023-07-31T00:07:47;99662.91;;;17.26;94.20
81005;BME280;70472;47.592;17.640;2023-07-31T00:08:19;99667.28;;;17.27;94.50
81005;BME280;70472;47.592;17.640;2023-07-31T00:08:52;99654.78;;;17.26;94.69
81005;BME280;70472;47.592;17.640;2023-07-31T00:09:24;99655.00;;;17.24;94.66
81005;BME280;70472;47.592;17.640;2023-07-31T00:09:56;99653.94;;;17.25;94.66
81005;BME280;70472;47.592;17.640;2023-07-31T00:10:29;99652.50;;;17.23;93.53
81005;BME280;70472;47.592;17.640;2023-07-31T00:11:01;99657.75;;;17.18;93.54
81005;BME280;70472;47.592;17.640;2023-07-31T00:11:33;99653.16;;;17.18;94.16
81005;BME280;70472;47.592;17.640;2023-07-31T00:12:06;99656.94;;;17.17;95.03
81005;BME280;70472;47.592;17.640;2023-07-31T00:12:42;99659.59;;;17.24;94.15
81005;BME280;70472;47.592;17.640;2023-07-31T00:13:15;99655.22;;;17.23;93.85
81005;BME280;70472;47.592;17.640;2023-07-31T00:13:47;99655.22;;;17.23;93.59
81005;BME280;70472;47.592;17.640;2023-07-31T00:14:19;99652.34;;;17.18;93.99
81005;BME280;70472;47.592;17.640;2023-07-31T00:14:52;99656.09;;;17.17;95.41
81005;BME280;70472;47.592;17.640;2023-07-31T00:15:24;99662.13;;;17.19;95.30
81005;BME280;70472;47.592;17.640;2023-07-31T00:15:56;99652.75;;;17.21;94.41
81005;BME280;70472;47.592;17.640;2023-07-31T00:16:29;99656.56;;;17.14;94.08
81005;BME280;70472;47.592;17.640;2023-07-31T00:17:02;99651.56;;;17.11;94.08
81005;BME280;70472;47.592;17.640;2023-07-31T00:17:34;99656.97;;;17.11;94.48
81005;BME280;70472;47.592;17.640;2023-07-31T00:18:07;99656.03;;;16.98;93.75
81005;BME280;70472;47.592;17.640;2023-07-31T00:18:39;99650.00;;;16.96;94.30
81005;BME280;70472;47.592;17.640;2023-07-31T00:19:11;99658.91;;;17.03;93.76
81005;BME280;70472;47.592;17.640;2023-07-31T00:19:44;99658.09;;;17.03;94.81
81005;BME280;70472;47.592;17.640;2023-07-31T00:20:16;99659.09;;;17.08;94.57
81005;BME280;70472;47.592;17.640;2023-07-31T00:20:48;99658.22;;;17.15;94.39
81005;BME280;70472;47.592;17.640;2023-07-31T00:21:21;99664.69;;;17.14;94.64
81005;BME280;70472;47.592;17.640;2023-07-31T00:21:53;99662.56;;;17.16;94.91
81005;BME280;70472;47.592;17.640;2023-07-31T00:22:25;99666.13;;;17.16;94.81
81005;BME280;70472;47.592;17.640;2023-07-31T00:22:58;99665.66;;;17.19;94.13
81005;BME280;70472;47.592;17.640;2023-07-31T00:23:30;99666.53;;;17.13;94.93
81005;BME280;70472;47.592;17.640;2023-07-31T00:24:02;99667.16;;;17.15;94.73
81005;BME280;70472;47.592;17.640;2023-07-31T00:24:35;99667.53;;;17.19;94.39
81005;BME280;70472;47.592;17.640;2023-07-31T00:25:07;99664.41;;;17.22;94.29
81005;BME280;70472;47.592;17.640;2023-07-31T00:25:40;99665.47;;;17.21;94.19
81005;BME280;70472;47.592;17.640;2023-07-31T00:26:12;99663.19;;;17.18;94.08
81005;BME280;70472;47.592;17.640;2023-07-31T00:26:45;99657.16;;;17.16;94.70
81005;BME280;70472;47.592;17.640;2023-07-31T00:27:17;99665.28;;;17.16;95.65
81005;BME280;70472;47.592;17.640;2023-07-31T00:27:49;99654.88;;;17.13;94.94
81005;BME280;70472;47.592;17.640;2023-07-31T00:28:22;99663.84;;;17.13;94.89
81005;BME280;70472;47.592;17.640;2023-07-31T00:28:54;99660.09;;;17.14;94.36
81005;BME280;70472;47.592;17.640;2023-07-31T00:29:27;99661.13;;;17.13;94.38
81005;BME280;70472;47.592;17.640;2023-07-31T00:29:59;99666.16;;;17.09;94.44
81005;BME280;70472;47.592;17.640;2023-07-31T00:30:31;99660.94;;;17.15;94.13
81005;BME280;70472;47.592;17.640;2023-07-31T00:31:05;99657.38;;;17.14;94.48
81005;BME280;70472;47.592;17.640;2023-07-31T00:31:38;99662.13;;;17.19;94.28
81005;BME280;70472;47.592;17.640;2023-07-31T00:32:10;99664.84;;;17.19;94.44
81005;BME280;70472;47.592;17.640;2023-07-31T00:32:42;99666.94;;;17.17;94.00
81005;BME280;70472;47.592;17.640;2023-07-31T00:33:16;99665.28;;;17.16;93.45
81005;BME280;70472;47.592;17.640;2023-07-31T00:33:48;99666.13;;;17.16;93.87
81005;BME280;70472;47.592;17.640;2023-07-31T00:34:21;99670.06;;;17.20;93.46
81005;BME280;70472;47.592;17.640;2023-07-31T00:34:53;99671.94;;;17.20;93.90
81005;BME280;70472;47.592;17.640;2023-07-31T00:35:25;99671.94;;;17.20;93.70
81005;BME280;70472;47.592;17.640;2023-07-31T00:35:58;99675.69;;;17.19;93.48
81005;BME280;70472;47.592;17.640;2023-07-31T00:36:30;99672.97;;;17.19;94.14
81005;BME280;70472;47.592;17.640;2023-07-31T00:37:03;99674.03;;;17.18;93.63
81005;BME280;70472;47.592;17.640;2023-07-31T00:37:35;99671.38;;;17.11;93.67
81005;BME280;70472;47.592;17.640;2023-07-31T00:38:08;99667.81;;;17.11;93.02
81005;BME280;70472;47.592;17.640;2023-07-31T00:38:40;99674.06;;;17.11;93.11
81005;BME280;70472;47.592;17.640;2023-07-31T00:39:12;99669.06;;;17.15;92.70
81005;BME280;70472;47.592;17.640;2023-07-31T00:39:45;99677.56;;;17.18;92.57
81005;BME280;70472;47.592;17.640;2023-07-31T00:40:17;99677.38;;;17.13;92.89
81005;BME280;70472;47.592;17.640;2023-07-31T00:40:49;99674.94;;;17.05;92.48
81005;BME280;70472;47.592;17.640;2023-07-31T00:41:22;99669.31;;;17.06;92.93
81005;BME280;70472;47.592;17.640;2023-07-31T00:41:54;99675.19;;;17.03;93.08
81005;BME280;70472;47.592;17.640;2023-07-31T00:42:26;99675.19;;;17.03;94.17
81005;BME280;70472;47.592;17.640;2023-07-31T00:42:59;99681.66;;;17.02;94.16
81005;BME280;70472;47.592;17.640;2023-07-31T00:43:33;99680.78;;;17.08;93.32
81005;BME280;70472;47.592;17.640;2023-07-31T00:44:05;99677.00;;;17.09;93.62
81005;BME280;70472;47.592;17.640;2023-07-31T00:44:38;99685.56;;;17.06;92.87
81005;BME280;70472;47.592;17.640;2023-07-31T00:45:10;99677.84;;;17.10;93.92
81005;BME280;70472;47.592;17.640;2023-07-31T00:45:42;99682.66;;;17.08;93.85
81005;BME280;70472;47.592;17.640;2023-07-31T00:46:16;99680.78;;;17.08;92.88
81005;BME280;70472;47.592;17.640;2023-07-31T00:46:49;99674.31;;;17.09;93.00
81005;BME280;70472;47.592;17.640;2023-07-31T00:47:21;99678.66;;;17.11;92.77
81005;BME280;70472;47.592;17.640;2023-07-31T00:47:54;99674.06;;;17.11;92.46
81005;BME280;70472;47.592;17.640;2023-07-31T00:48:26;99674.53;;;17.08;93.05
81005;BME280;70472;47.592;17.640;2023-07-31T00:49:00;99672.91;;;17.00;92.72
81005;BME280;70472;47.592;17.640;2023-07-31T00:49:33;99675.00;;;16.98;93.12
81005;BME280;70472;47.592;17.640;2023-07-31T00:50:06;99673.94;;;16.99;92.94
81005;BME280;70472;47.592;17.640;2023-07-31T00:50:39;99674.00;;;16.93;93.53
81005;BME280;70472;47.592;17.640;2023-07-31T00:51:11;99672.56;;;16.90;93.31
81005;BME280;70472;47.592;17.640;2023-07-31T00:51:44;99668.19;;;16.89;92.80
81005;BME280;70472;47.592;17.640;2023-07-31T00:52:17;99672.13;;;16.93;94.10
81005;BME280;70472;47.592;17.640;2023-07-31T00:52:51;99670.00;;;16.95;93.49
81005;BME280;70472;47.592;17.640;2023-07-31T00:53:24;99667.09;;;16.97;93.22
81005;BME280;70472;47.592;17.640;2023-07-31T00:53:57;99671.06;;;16.94;93.60
81005;BME280;70472;47.592;17.640;2023-07-31T00:54:30;99670.88;;;16.96;93.42
81005;BME280;70472;47.592;17.640;2023-07-31T00:55:03;99671.72;;;16.90;93.18
81005;BME280;70472;47.592;17.640;2023-07-31T00:55:36;99670.88;;;16.89;93.12
81005;BME280;70472;47.592;17.640;2023-07-31T00:56:08;99665.28;;;16.91;93.14
81005;BME280;70472;47.592;17.640;2023-07-31T00:56:41;99671.50;;;16.91;93.65
81005;BME280;70472;47.592;17.640;2023-07-31T00:57:15;99671.50;;;16.91;93.38
81005;BME280;70472;47.592;17.640;2023-07-31T00:57:48;99670.47;;;16.92;94.30
81005;BME280;70472;47.592;17.640;2023-07-31T00:58:22;99661.09;;;16.88;93.36
81005;BME280;70472;47.592;17.640;2023-07-31T00:58:56;99664.03;;;16.87;93.68
81005;BME280;70472;47.592;17.640;2023-07-31T00:59:29;99671.09;;;16.88;93.64
81005;BME280;70472;47.592;17.640;2023-07-31T01:00:01;99679.28;;;16.81;93.08
81005;BME280;70472;47.592;17.640;2023-07-31T01:00:33;99668.44;;;16.81;92.95
81005;BME280;70472;47.592;17.640;2023-07-31T01:01:06;99671.81;;;16.70;92.26
81005;BME280;70472;47.592;17.640;2023-07-31T01:01:38;99671.81;;;16.70;93.29
81005;BME280;70472;47.592;17.640;2023-07-31T01:02:11;99677.03;;;16.65;93.36
81005;BME280;70472;47.592;17.640;2023-07-31T01:02:44;99678.50;;;16.67;93.43
81005;BME280;70472;47.592;17.640;2023-07-31T01:03:18;99679.56;;;16.73;92.92
81005;BME280;70472;47.592;17.640;2023-07-31T01:03:53;99684.34;;;16.71;93.73
81005;BME280;70472;47.592;17.640;2023-07-31T01:04:27;99680.16;;;16.75;93.24
81005;BME280;70472;47.592;17.640;2023-07-31T01:05:01;99679.28;;;16.81;92.93
81005;BME280;70472;47.592;17.640;2023-07-31T01:07:02;99685.75;;;16.80;93.30
81005;BME280;70472;47.592;17.640;2023-07-31T01:08:04;99694.94;;;16.79;92.84
81005;BME280;70472;47.592;17.640;2023-07-31T01:08:47;99689.28;;;16.80;92.87
81005;BME280;70472;47.592;17.640;2023-07-31T01:09:29;99692.66;;;16.76;93.37
81005;BME280;70472;47.592;17.640;2023-07-31T01:10:54;99690.53;;;16.78;92.45
81005;BME280;70472;47.592;17.640;2023-07-31T01:11:31;99686.00;;;16.72;93.67
81005;BME280;70472;47.592;17.640;2023-07-31T01:12:07;99686.63;;;16.67;93.79
81005;BME280;70472;47.592;17.640;2023-07-31T01:12:42;99688.50;;;16.73;93.67
81005;BME280;70472;47.592;17.640;2023-07-31T01:13:18;99686.81;;;16.79;92.55
81005;BME280;70472;47.592;17.640;2023-07-31T01:13:51;99694.31;;;16.77;92.94
81005;BME280;70472;47.592;17.640;2023-07-31T01:14:24;99682.25;;;16.73;93.50
81005;BME280;70472;47.592;17.640;2023-07-31T01:15:08;99697.22;;;16.75;93.43
81005;BME280;70472;47.592;17.640;2023-07-31T01:15:40;99697.66;;;16.79;93.74
81005;BME280;70472;47.592;17.640;2023-07-31T01:16:13;99704.13;;;16.71;92.57
81005;BME280;70472;47.592;17.640;2023-07-31T01:16:46;99698.72;;;16.65;93.28
81005;BME280;70472;47.592;17.640;2023-07-31T01:17:18;99689.53;;;16.66;92.71
81005;BME280;70472;47.592;17.640;2023-07-31T01:17:50;99695.63;;;16.61;93.27
81005;BME280;70472;47.592;17.640;2023-07-31T01:18:23;99700.38;;;16.66;92.86
81005;BME280;70472;47.592;17.640;2023-07-31T01:18:55;99701.84;;;16.68;92.82
81005;BME280;70472;47.592;17.640;2023-07-31T01:19:27;99707.25;;;16.68;93.06
81005;BME280;70472;47.592;17.640;2023-07-31T01:20:08;99705.59;;;16.67;92.06
81005;BME280;70472;47.592;17.640;2023-07-31T01:20:42;99700.84;;;16.56;93.40
81005;BME280;70472;47.592;17.640;2023-07-31T01:22:36;99701.88;;;16.62;93.08
81005;BME280;70472;47.592;17.640;2023-07-31T01:24:28;99700.03;;;16.55;93.27
81005;BME280;70472;47.592;17.640;2023-07-31T01:26:34;99702.06;;;16.67;93.50
81005;BME280;70472;47.592;17.640;2023-07-31T01:27:23;99708.72;;;16.64;93.17
81005;BME280;70472;47.592;17.640;2023-07-31T01:28:09;99705.81;;;16.59;93.66
81005;BME280;70472;47.592;17.640;2023-07-31T01:30:29;99698.94;;;16.63;92.92
81005;BME280;70472;47.592;17.640;2023-07-31T01:30:56;99706.03;;;16.58;93.37
81005;BME280;70472;47.592;17.640;2023-07-31T01:31:31;99706.50;;;16.54;92.70
81005;BME280;70472;47.592;17.640;2023-07-31T01:32:05;99699.56;;;16.59;93.41
81005;BME280;70472;47.592;17.640;2023-07-31T01:32:43;99693.75;;;16.62;93.06
81005;BME280;70472;47.592;17.640;2023-07-31T01:33:17;99701.88;;;16.62;93.60
81005;BME280;70472;47.592;17.640;2023-07-31T01:33:53;99697.88;;;16.64;94.05
81005;BME280;70472;47.592;17.640;2023-07-31T01:34:29;99693.16;;;16.53;94.09
81005;BME280;70472;47.592;17.640;2023-07-31T01:35:01;99698.59;;;16.46;93.70
81005;BME280;70472;47.592;17.640;2023-07-31T01:35:35;99700.06;;;16.42;93.83
81005;BME280;70472;47.592;17.640;2023-07-31T01:36:08;99694.00;;;16.47;92.88
81005;BME280;70472;47.592;17.640;2023-07-31T01:36:41;99702.53;;;16.50;93.92
81005;BME280;70472;47.592;17.640;2023-07-31T01:37:13;99691.53;;;16.45;93.67
81005;BME280;70472;47.592;17.640;2023-07-31T01:37:46;99696.06;;;16.51;93.32
81005;BME280;70472;47.592;17.640;2023-07-31T01:38:21;99691.72;;;16.50;93.38
81005;BME280;70472;47.592;17.640;2023-07-31T01:38:59;99691.50;;;16.52;92.58
81005;BME280;70472;47.592;17.640;2023-07-31T01:39:31;99690.88;;;16.50;92.57
81005;BME280;70472;47.592;17.640;2023-07-31T01:40:05;99686.09;;;16.45;92.83
81005;BME280;70472;47.592;17.640;2023-07-31T01:40:42;99694.00;;;16.47;93.30
81005;BME280;70472;47.592;17.640;2023-07-31T01:41:17;99689.84;;;16.51;93.36
81005;BME280;70472;47.592;17.640;2023-07-31T01:41:50;99687.56;;;16.41;92.74
81005;BME280;70472;47.592;17.640;2023-07-31T01:42:22;99687.75;;;16.46;93.23
81005;BME280;70472;47.592;17.640;2023-07-31T01:42:55;99687.16;;;16.44;93.65
81005;BME280;70472;47.592;17.640;2023-07-31T01:43:27;99691.09;;;16.48;93.17
81005;BME280;70472;47.592;17.640;2023-07-31T01:44:00;99682.78;;;16.43;93.47
81005;BME280;70472;47.592;17.640;2023-07-31T01:44:32;99681.97;;;16.43;93.89
81005;BME280;70472;47.592;17.640;2023-07-31T01:45:06;99677.81;;;16.34;93.68
81005;BME280;70472;47.592;17.640;2023-07-31T01:45:38;99681.16;;;16.36;92.60
81005;BME280;70472;47.592;17.640;2023-07-31T01:46:10;99676.13;;;16.39;92.41
81005;BME280;70472;47.592;17.640;2023-07-31T01:46:43;99681.56;;;16.39;93.06
81005;BME280;70472;47.592;17.640;2023-07-31T01:47:15;99685.91;;;16.40;92.86
81005;BME280;70472;47.592;17.640;2023-07-31T01:47:47;99679.06;;;16.38;93.88
81005;BME280;70472;47.592;17.640;2023-07-31T01:48:21;99685.94;;;16.34;94.02
81005;BME280;70472;47.592;17.640;2023-07-31T01:48:53;99685.13;;;16.33;93.66
81005;BME280;70472;47.592;17.640;2023-07-31T01:49:26;99680.78;;;16.25;92.80
81005;BME280;70472;47.592;17.640;2023-07-31T01:49:58;99686.19;;;16.25;92.71
81005;BME280;70472;47.592;17.640;2023-07-31T01:50:30;99687.84;;;16.26;93.75
81005;BME280;70472;47.592;17.640;2023-07-31T01:51:03;99687.06;;;16.19;93.51
81005;BME280;70472;47.592;17.640;2023-07-31T01:51:35;99689.97;;;16.18;93.21
81005;BME280;70472;47.592;17.640;2023-07-31T01:52:08;99687.44;;;16.23;92.97
81005;BME280;70472;47.592;17.640;2023-07-31T01:52:40;99684.72;;;16.23;93.54
81005;BME280;70472;47.592;17.640;2023-07-31T01:53:13;99690.59;;;16.20;94.25
81005;BME280;70472;47.592;17.640;2023-07-31T01:53:45;99683.75;;;16.11;94.71
81005;BME280;70472;47.592;17.640;2023-07-31T01:54:17;99693.31;;;16.13;94.04
81005;BME280;70472;47.592;17.640;2023-07-31T01:54:50;99692.84;;;16.23;94.18
81005;BME280;70472;47.592;17.640;2023-07-31T01:55:22;99683.31;;;16.20;95.16
81005;BME280;70472;47.592;17.640;2023-07-31T01:55:54;99685.38;;;16.18;95.37
81005;BME280;70472;47.592;17.640;2023-07-31T01:56:27;99688.53;;;16.15;94.82
81005;BME280;70472;47.592;17.640;2023-07-31T01:56:59;99687.91;;;16.13;94.64
81005;BME280;70472;47.592;17.640;2023-07-31T01:57:32;99690.78;;;16.18;93.77
81005;BME280;70472;47.592;17.640;2023-07-31T01:58:04;99687.03;;;16.26;94.60
81005;BME280;70472;47.592;17.640;2023-07-31T01:58:36;99686.03;;;16.14;94.08
81005;BME280;70472;47.592;17.640;2023-07-31T01:59:09;99686.44;;;16.11;95.74
81005;BME280;70472;47.592;17.640;2023-07-31T01:59:41;99679.16;;;16.11;94.90
81005;BME280;70472;47.592;17.640;2023-07-31T02:00:13;99688.94;;;16.19;95.32
81005;BME280;70472;47.592;17.640;2023-07-31T02:00:46;99682.84;;;16.23;94.81
81005;BME280;70472;47.592;17.640;2023-07-31T02:01:18;99684.97;;;16.21;94.89
81005;BME280;70472;47.592;17.640;2023-07-31T02:01:50;99680.38;;;16.22;94.89
81005;BME280;70472;47.592;17.640;2023-07-31T02:02:24;99683.94;;;16.16;95.43
81005;BME280;70472;47.592;17.640;2023-07-31T02:02:57;99686.66;;;16.16;95.79
81005;BME280;70472;47.592;17.640;2023-07-31T02:03:29;99690.41;;;16.15;95.22
81005;BME280;70472;47.592;17.640;2023-07-31T02:04:01;99680.81;;;16.19;95.99
81005;BME280;70472;47.592;17.640;2023-07-31T02:04:34;99682.84;;;16.23;95.48
81005;BME280;70472;47.592;17.640;2023-07-31T02:05:07;99684.97;;;16.21;94.32
81005;BME280;70472;47.592;17.640;2023-07-31T02:05:49;99690.97;;;16.23;94.72
81005;BME280;70472;47.592;17.640;2023-07-31T02:06:21;99694.94;;;16.27;94.59
81005;BME280;70472;47.592;17.640;2023-07-31T02:06:53;99690.16;;;16.23;94.73
81005;BME280;70472;47.592;17.640;2023-07-31T02:07:26;99697.44;;;16.22;95.41
81005;BME280;70472;47.592;17.640;2023-07-31T02:07:58;99697.84;;;16.26;94.75
81005;BME280;70472;47.592;17.640;2023-07-31T02:08:32;99693.50;;;16.25;95.33
81005;BME280;70472;47.592;17.640;2023-07-31T02:09:04;99694.09;;;16.27;95.77
81005;BME280;70472;47.592;17.640;2023-07-31T02:09:36;99700.56;;;16.26;94.65
81005;BME280;70472;47.592;17.640;2023-07-31T02:10:09;99703.28;;;16.26;94.19
81005;BME280;70472;47.592;17.640;2023-07-31T02:10:42;99702.00;;;16.28;94.20
81005;BME280;70472;47.592;17.640;2023-07-31T02:11:15;99708.25;;;16.29;93.76
81005;BME280;70472;47.592;17.640;2023-07-31T02:11:47;99704.94;;;16.27;94.07
81005;BME280;70472;47.592;17.640;2023-07-31T02:12:19;99704.72;;;16.28;93.74
81005;BME280;70472;47.592;17.640;2023-07-31T02:12:52;99708.25;;;16.29;93.76
81005;BME280;70472;47.592;17.640;2023-07-31T02:13:24;99704.94;;;16.27;93.07
81005;BME280;70472;47.592;17.640;2023-07-31T02:13:57;99707.44;;;16.22;93.00
81005;BME280;70472;47.592;17.640;2023-07-31T02:14:29;99711.41;;;16.19;93.24
81005;BME280;70472;47.592;17.640;2023-07-31T02:15:01;99705.59;;;16.16;94.02
81005;BME280;70472;47.592;17.640;2023-07-31T02:15:35;99706.84;;;16.20;94.40
81005;BME280;70472;47.592;17.640;2023-07-31T02:16:07;99711.59;;;16.18;94.84
81005;BME280;70472;47.592;17.640;2023-07-31T02:16:40;99720.16;;;16.15;94.64
81005;BME280;70472;47.592;17.640;2023-07-31T02:17:12;99714.97;;;16.07;94.13
81005;BME280;70472;47.592;17.640;2023-07-31T02:17:44;99718.91;;;16.11;94.17
81005;BME280;70472;47.592;17.640;2023-07-31T02:18:17;99712.88;;;16.15;94.10
81005;BME280;70472;47.592;17.640;2023-07-31T02:18:49;99716.00;;;16.19;93.35
81005;BME280;70472;47.592;17.640;2023-07-31T02:19:22;99720.97;;;16.22;93.16
81005;BME280;70472;47.592;17.640;2023-07-31T02:19:54;99716.16;;;16.24;93.66
81005;BME280;70472;47.592;17.640;2023-07-31T02:20:26;99716.81;;;16.26;93.19
81005;BME280;70472;47.592;17.640;2023-07-31T02:20:59;99712.44;;;16.25;93.84
81005;BME280;70472;47.592;17.640;2023-07-31T02:21:31;99706.84;;;16.20;93.74
81005;BME280;70472;47.592;17.640;2023-07-31T02:22:04;99716.63;;;16.14;93.24
81005;BME280;70472;47.592;17.640;2023-07-31T02:22:36;99721.41;;;16.19;93.79
81005;BME280;70472;47.592;17.640;2023-07-31T02:23:08;99716.59;;;16.21;93.20
81005;BME280;70472;47.592;17.640;2023-07-31T02:23:41;99724.94;;;16.19;93.17
81005;BME280;70472;47.592;17.640;2023-07-31T02:24:13;99717.03;;;16.18;93.04
81005;BME280;70472;47.592;17.640;2023-07-31T02:24:46;99707.03;;;16.12;93.27
81005;BME280;70472;47.592;17.640;2023-07-31T02:25:18;99713.47;;;16.17;94.10
81005;BME280;70472;47.592;17.640;2023-07-31T02:25:51;99720.38;;;16.20;94.35
81005;BME280;70472;47.592;17.640;2023-07-31T02:26:24;99724.13;;;16.19;93.81
81005;BME280;70472;47.592;17.640;2023-07-31T02:26:56;99711.59;;;16.18;93.93
81005;BME280;70472;47.592;17.640;2023-07-31T02:27:28;99716.00;;;16.19;95.03
81005;BME280;70472;47.592;17.640;2023-07-31T02:28:01;99717.84;;;16.18;93.98
81005;BME280;70472;47.592;17.640;2023-07-31T02:28:33;99722.25;;;16.19;93.74
81005;BME280;70472;47.592;17.640;2023-07-31T02:29:06;99717.66;;;16.20;94.40
81005;BME280;70472;47.592;17.640;2023-07-31T02:29:38;99721.59;;;16.24;93.81
81005;BME280;70472;47.592;17.640;2023-07-31T02:30:11;99724.53;;;16.16;94.27
81005;BME280;70472;47.592;17.640;2023-07-31T02:30:46;99715.38;;;16.17;94.72
81005;BME280;70472;47.592;17.640;2023-07-31T02:31:18;99721.81;;;16.16;93.78
81005;BME280;70472;47.592;17.640;2023-07-31T02:31:52;99723.91;;;16.14;94.52
81005;BME280;70472;47.592;17.640;2023-07-31T02:32:24;99718.72;;;16.19;94.60
81005;BME280;70472;47.592;17.640;2023-07-31T02:32:57;99719.31;;;16.21;93.40
81005;BME280;70472;47.592;17.640;2023-07-31T02:33:29;99713.47;;;16.24;92.94
81005;BME280;70472;47.592;17.640;2023-07-31T02:34:01;99714.13;;;16.19;93.55
81005;BME280;70472;47.592;17.640;2023-07-31T02:34:34;99716.00;;;16.19;93.63
81005;BME280;70472;47.592;17.640;2023-07-31T02:35:07;99714.13;;;16.19;94.20
81005;BME280;70472;47.592;17.640;2023-07-31T02:35:39;99717.66;;;16.07;93.63
81005;BME280;70472;47.592;17.640;2023-07-31T02:36:11;99714.97;;;16.07;94.58
81005;BME280;70472;47.592;17.640;2023-07-31T02:36:44;99715.63;;;16.02;93.69
81005;BME280;70472;47.592;17.640;2023-07-31T02:37:16;99720.00;;;16.03;94.01
81005;BME280;70472;47.592;17.640;2023-07-31T02:37:48;99713.53;;;16.04;94.23
81005;BME280;70472;47.592;17.640;2023-07-31T02:38:21;99712.69;;;16.03;93.99
81005;BME280;70472;47.592;17.640;2023-07-31T02:38:53;99713.53;;;15.97;93.16
81005;BME280;70472;47.592;17.640;2023-07-31T02:39:25;99714.19;;;15.93;94.17
81005;BME280;70472;47.592;17.640;2023-07-31T02:39:57;99714.16;;;15.99;93.72
81005;BME280;70472;47.592;17.640;2023-07-31T02:40:32;99715.41;;;16.03;94.12
81005;BME280;70472;47.592;17.640;2023-07-31T02:41:05;99712.50;;;15.98;94.10
81005;BME280;70472;47.592;17.640;2023-07-31T02:41:38;99707.91;;;15.99;95.00
81005;BME280;70472;47.592;17.640;2023-07-31T02:42:10;99712.91;;;16.02;94.96
81005;BME280;70472;47.592;17.640;2023-07-31T02:42:42;99712.09;;;16.01;94.70
81005;BME280;70472;47.592;17.640;2023-07-31T02:43:16;99699.59;;;16.07;94.89
81005;BME280;70472;47.592;17.640;2023-07-31T02:43:48;99704.13;;;16.07;94.77
81005;BME280;70472;47.592;17.640;2023-07-31T02:44:21;99703.72;;;16.10;94.94
81005;BME280;70472;47.592;17.640;2023-07-31T02:44:53;99707.03;;;16.12;93.64
81005;BME280;70472;47.592;17.640;2023-07-31T02:45:25;99712.06;;;16.15;94.80
81005;BME280;70472;47.592;17.640;2023-07-31T02:45:59;99708.28;;;16.16;94.17
81005;BME280;70472;47.592;17.640;2023-07-31T02:46:31;99712.06;;;16.15;94.72
81005;BME280;70472;47.592;17.640;2023-07-31T02:47:04;99706.22;;;16.11;93.63
81005;BME280;70472;47.592;17.640;2023-07-31T02:47:38;99712.91;;;16.09;93.83
81005;BME280;70472;47.592;17.640;2023-07-31T02:48:10;99716.22;;;16.11;93.67
81005;BME280;70472;47.592;17.640;2023-07-31T02:48:43;99717.03;;;16.11;93.93
81005;BME280;70472;47.592;17.640;2023-07-31T02:49:18;99712.47;;;16.12;93.90
81005;BME280;70472;47.592;17.640;2023-07-31T02:49:50;99707.47;;;16.15;94.01
81005;BME280;70472;47.592;17.640;2023-07-31T02:50:22;99707.03;;;16.12;93.99
81005;BME280;70472;47.592;17.640;2023-07-31T02:50:58;99708.91;;;16.18;94.10
81005;BME280;70472;47.592;17.640;2023-07-31T02:51:30;99704.97;;;16.14;93.55
81005;BME280;70472;47.592;17.640;2023-07-31T02:52:03;99709.34;;;16.15;93.28
81005;BME280;70472;47.592;17.640;2023-07-31T02:52:36;99712.88;;;16.15;93.84
81005;BME280;70472;47.592;17.640;2023-07-31T02:53:08;99710.38;;;16.14;93.58
81005;BME280;70472;47.592;17.640;2023-07-31T02:53:40;99716.22;;;16.11;92.89
81005;BME280;70472;47.592;17.640;2023-07-31T02:54:13;99708.09;;;16.11;93.63
81005;BME280;70472;47.592;17.640;2023-07-31T02:54:45;99712.25;;;16.07;94.04
81005;BME280;70472;47.592;17.640;2023-07-31T02:55:17;99712.91;;;16.09;92.99
81005;BME280;70472;47.592;17.640;2023-07-31T02:55:50;99700.41;;;16.08;94.40
81005;BME280;70472;47.592;17.640;2023-07-31T02:56:22;99704.78;;;16.09;92.96
81005;BME280;70472;47.592;17.640;2023-07-31T02:56:54;99704.78;;;16.09;94.04
81005;BME280;70472;47.592;17.640;2023-07-31T02:57:27;99699.97;;;16.11;93.87
81005;BME280;70472;47.592;17.640;2023-07-31T02:57:59;99701.03;;;16.10;93.81
81005;BME280;70472;47.592;17.640;2023-07-31T02:58:31;99699.38;;;16.09;93.10
81005;BME280;70472;47.592;17.640;2023-07-31T02:59:04;99707.28;;;16.03;93.14
81005;BME280;70472;47.592;17.640;2023-07-31T02:59:36;99704.13;;;16.07;93.95
81005;BME280;70472;47.592;17.640;2023-07-31T03:00:09;99711.25;;;16.08;94.06
81005;BME280;70472;47.592;17.640;2023-07-31T03:00:44;99711.66;;;15.98;93.67
81005;BME280;70472;47.592;17.640;2023-07-31T03:01:17;99703.34;;;15.99;93.42